YXAH weather

Armidale - Lambert Park Helipad
Armidale, New South Wales, Australia

Public forecast

Using degrees Celsius for public forecast. Weather courtesy of forecast.io.

METAR (pilot weather report)

Closest report is Tamworth Airport, 54.0 nm (100.1 km) SW. Retrieved 2019/04/19 04:00 UTC (7 minutes ago):

YSTW 190400Z AUTO 16011KT 110V180 9999 // SCT061 28/10 Q1023

TAF (pilot weather forecast)

Forecast is more than 6 hours old.

Closest forecast is Tamworth Airport, 54.0 nm (100.1 km) SW. Retrieved 2019/04/18 18:36 UTC (10 hours ago):

TAF TAF YSTW 181703Z 1818/1912 13008KT CAVOK FM190600 11012KT CAVOK